createdAt,value
2016-12-19T00:00:22.479Z,0.00
2016-12-19T00:01:23.010Z,0.00
2016-12-19T00:02:23.394Z,0.00
2016-12-19T00:03:23.952Z,0.00
2016-12-19T00:04:24.456Z,0.00
2016-12-19T00:05:25.014Z,0.00
2016-12-19T00:06:25.518Z,0.00
2016-12-19T00:07:26.047Z,0.00
2016-12-19T00:08:26.581Z,0.00
2016-12-19T00:09:27.282Z,0.00
2016-12-19T00:10:27.653Z,0.00
2016-12-19T00:11:28.332Z,0.00
2016-12-19T00:12:28.933Z,0.00
2016-12-19T00:13:29.271Z,0.00
2016-12-19T00:14:29.817Z,0.00
2016-12-19T00:15:30.354Z,0.00
2016-12-19T00:16:30.854Z,0.00
2016-12-19T00:17:31.537Z,0.00
2016-12-19T00:18:31.920Z,0.00
2016-12-19T00:19:32.453Z,0.00
2016-12-19T00:20:32.986Z,0.00
2016-12-19T00:21:33.552Z,0.00
2016-12-19T00:22:34.195Z,0.00
2016-12-19T00:23:34.578Z,0.00
2016-12-19T00:24:35.112Z,0.00
2016-12-19T00:25:35.795Z,0.00
2016-12-19T00:26:36.183Z,0.00
2016-12-19T00:27:36.857Z,0.00
2016-12-19T00:28:37.242Z,0.00
2016-12-19T00:29:37.808Z,0.00
2016-12-19T00:30:38.305Z,0.00
2016-12-19T00:31:38.850Z,0.00
2016-12-19T00:32:39.516Z,0.00
2016-12-19T00:33:39.901Z,0.00
2016-12-19T00:34:40.581Z,0.00
2016-12-19T00:35:41.115Z,0.00
2016-12-19T00:36:41.502Z,0.00
2016-12-19T00:37:42.045Z,0.00
2016-12-19T00:38:42.563Z,0.00
2016-12-19T00:39:43.094Z,0.00
2016-12-19T00:40:43.625Z,0.00
2016-12-19T00:41:44.188Z,0.00
2016-12-19T00:42:44.685Z,0.00
2016-12-19T00:43:45.213Z,0.00
2016-12-19T00:44:45.744Z,0.00
2016-12-19T00:45:46.310Z,0.00
2016-12-19T00:46:46.807Z,0.00
2016-12-19T00:47:47.368Z,0.00
2016-12-19T00:48:48.011Z,0.00
2016-12-19T00:49:48.393Z,0.00
2016-12-19T00:50:48.929Z,0.00
2016-12-19T00:51:49.514Z,0.00
2016-12-19T00:52:50.015Z,0.00
2016-12-19T00:53:50.528Z,0.00
2016-12-19T00:54:51.066Z,0.00
2016-12-19T00:55:51.596Z,0.00
2016-12-19T00:56:52.129Z,0.00
2016-12-19T00:57:52.659Z,0.00
2016-12-19T00:58:53.339Z,0.00
2016-12-19T00:59:53.872Z,0.00
2016-12-19T01:00:54.398Z,0.00
2016-12-19T01:01:54.781Z,0.00
2016-12-19T01:02:55.316Z,0.00
2016-12-19T01:03:55.869Z,0.00
2016-12-19T01:04:56.521Z,0.00
2016-12-19T01:05:56.907Z,0.00
2016-12-19T01:06:57.584Z,0.00
2016-12-19T01:07:57.966Z,0.00
2016-12-19T01:08:58.653Z,0.00
2016-12-19T01:09:59.189Z,0.00
2016-12-19T01:10:59.564Z,0.00
2016-12-19T01:12:00.101Z,0.00
2016-12-19T01:13:00.773Z,0.00
2016-12-19T01:14:01.308Z,0.00
2016-12-19T01:15:01.688Z,0.00
2016-12-19T01:16:02.250Z,0.00
2016-12-19T01:17:02.754Z,0.00
2016-12-19T01:18:03.279Z,0.00
2016-12-19T01:19:03.844Z,0.00
2016-12-19T01:20:04.380Z,0.00
2016-12-19T01:21:05.026Z,0.00
2016-12-19T01:22:05.441Z,0.00
2016-12-19T01:23:05.943Z,0.00
2016-12-19T01:24:06.468Z,0.00
2016-12-19T01:25:07.000Z,0.00
2016-12-19T01:26:07.564Z,0.00
2016-12-19T01:27:08.065Z,0.00
2016-12-19T01:28:08.599Z,0.00
2016-12-19T01:29:09.131Z,0.00
2016-12-19T01:30:09.687Z,0.00
2016-12-19T01:31:10.197Z,0.00
2016-12-19T01:32:10.769Z,0.00
2016-12-19T01:33:11.262Z,0.00
2016-12-19T01:34:11.819Z,0.00
2016-12-19T01:35:12.335Z,0.00
2016-12-19T01:36:13.016Z,0.00
2016-12-19T01:37:13.403Z,0.00
2016-12-19T01:38:13.955Z,0.00
2016-12-19T01:39:14.472Z,0.00
2016-12-19T01:40:15.016Z,0.00
2016-12-19T01:41:15.664Z,0.00
2016-12-19T01:42:16.199Z,0.00
2016-12-19T01:43:16.580Z,0.00
2016-12-19T01:44:17.144Z,0.00
2016-12-19T01:45:17.787Z,0.00
2016-12-19T01:46:18.170Z,0.00
2016-12-19T01:47:18.706Z,0.00
2016-12-19T01:48:19.271Z,0.00
2016-12-19T01:49:19.764Z,0.00
2016-12-19T01:50:20.295Z,0.00
2016-12-19T01:51:20.976Z,0.00
2016-12-19T01:52:21.510Z,0.00
2016-12-19T01:53:21.894Z,0.00
2016-12-19T01:54:22.578Z,0.00
2016-12-19T01:55:22.956Z,0.00
2016-12-19T01:56:23.487Z,0.00
2016-12-19T01:57:24.020Z,0.00
2016-12-19T01:58:24.701Z,0.00
2016-12-19T01:59:25.230Z,0.00
2016-12-19T02:00:25.617Z,0.00
2016-12-19T02:01:26.149Z,0.00
2016-12-19T02:02:26.714Z,0.00
2016-12-19T02:03:27.212Z,0.00
2016-12-19T02:04:27.889Z,0.00
2016-12-19T02:05:28.269Z,0.00
2016-12-19T02:06:28.804Z,0.00
2016-12-19T02:07:29.359Z,0.00
2016-12-19T02:08:29.863Z,0.00
2016-12-19T02:09:30.428Z,0.00
2016-12-19T02:10:30.929Z,0.00
2016-12-19T02:11:31.612Z,0.00
2016-12-19T02:12:31.996Z,0.00
2016-12-19T02:13:32.680Z,0.00
2016-12-19T02:14:33.068Z,0.00
2016-12-19T02:15:33.605Z,0.00
2016-12-19T02:16:34.180Z,0.00
2016-12-19T02:17:34.826Z,0.00
2016-12-19T02:18:35.241Z,0.00
2016-12-19T02:19:35.747Z,0.00
2016-12-19T02:20:36.303Z,0.00
2016-12-19T02:21:36.951Z,0.00
2016-12-19T02:22:37.329Z,0.00
2016-12-19T02:23:38.008Z,0.00
2016-12-19T02:24:38.420Z,0.00
2016-12-19T02:25:38.925Z,0.00
2016-12-19T02:26:39.451Z,0.00
2016-12-19T02:27:39.986Z,0.00
2016-12-19T02:28:40.663Z,0.00
2016-12-19T02:29:41.189Z,0.00
2016-12-19T02:30:41.574Z,0.00
2016-12-19T02:31:42.107Z,0.00
2016-12-19T02:32:42.669Z,0.00
2016-12-19T02:33:43.166Z,0.00
2016-12-19T02:34:43.846Z,0.00
2016-12-19T02:35:44.232Z,0.00
2016-12-19T02:36:44.794Z,0.00
2016-12-19T02:37:45.295Z,0.00
2016-12-19T02:38:45.849Z,0.00
2016-12-19T02:39:46.505Z,0.00
2016-12-19T02:40:47.040Z,0.00
2016-12-19T02:41:47.565Z,0.00
2016-12-19T02:42:47.970Z,0.00
2016-12-19T02:43:48.478Z,0.00
2016-12-19T02:44:49.158Z,0.00
2016-12-19T02:45:49.537Z,0.00
2016-12-19T02:46:50.073Z,0.00
2016-12-19T02:47:50.740Z,0.00
2016-12-19T02:48:51.133Z,0.00
2016-12-19T02:49:51.657Z,0.00
2016-12-19T02:50:52.341Z,0.00
2016-12-19T02:51:52.865Z,0.00
2016-12-19T02:52:53.254Z,0.00
2016-12-19T02:53:53.784Z,0.00
2016-12-19T02:54:54.353Z,0.00
2016-12-19T02:55:54.852Z,0.00
2016-12-19T02:56:55.385Z,0.00
2016-12-19T02:57:55.922Z,0.00
2016-12-19T02:58:56.487Z,0.00
2016-12-19T02:59:57.134Z,0.00
2016-12-19T03:00:57.521Z,0.00
2016-12-19T03:01:58.198Z,0.00
2016-12-19T03:02:58.582Z,0.00
2016-12-19T03:03:59.262Z,0.00
2016-12-19T03:04:59.683Z,0.00
2016-12-19T03:06:00.182Z,0.00
2016-12-19T03:07:00.861Z,0.00
2016-12-19T03:08:01.248Z,0.00
2016-12-19T03:09:01.923Z,0.00
2016-12-19T03:10:02.456Z,0.00
2016-12-19T03:11:02.876Z,0.00
2016-12-19T03:12:03.521Z,0.00
2016-12-19T03:13:03.911Z,0.00
2016-12-19T03:14:04.583Z,0.00
2016-12-19T03:15:04.965Z,0.00
2016-12-19T03:16:05.641Z,0.00
2016-12-19T03:17:06.058Z,0.00
2016-12-19T03:18:06.702Z,0.00
2016-12-19T03:19:07.239Z,0.00
2016-12-19T03:20:07.625Z,0.00
2016-12-19T03:21:08.304Z,0.00
2016-12-19T03:22:08.711Z,0.00
2016-12-19T03:23:09.361Z,0.00
2016-12-19T03:24:09.888Z,0.00
2016-12-19T03:25:10.269Z,0.00
2016-12-19T03:26:10.802Z,0.00
2016-12-19T03:27:11.481Z,0.00
2016-12-19T03:28:11.864Z,0.00
2016-12-19T03:29:12.396Z,0.00
2016-12-19T03:30:13.074Z,0.00
2016-12-19T03:31:13.604Z,0.00
2016-12-19T03:32:14.005Z,0.00
2016-12-19T03:33:14.518Z,0.00
2016-12-19T03:34:15.056Z,0.00
2016-12-19T03:35:15.589Z,0.00
2016-12-19T03:36:16.123Z,0.00
2016-12-19T03:37:16.807Z,0.00
2016-12-19T03:38:17.191Z,0.00
2016-12-19T03:39:17.752Z,0.00
2016-12-19T03:40:18.261Z,0.00
2016-12-19T03:41:18.790Z,0.00
2016-12-19T03:42:19.319Z,0.00
2016-12-19T03:43:19.848Z,0.00
2016-12-19T03:44:20.384Z,0.00
2016-12-19T03:45:21.068Z,0.00
2016-12-19T03:46:21.449Z,0.00
2016-12-19T03:47:22.007Z,0.00
2016-12-19T03:48:22.513Z,0.00
2016-12-19T03:49:23.044Z,0.00
2016-12-19T03:50:23.577Z,0.00
2016-12-19T03:51:24.111Z,0.00
2016-12-19T03:52:24.787Z,0.00
2016-12-19T03:53:25.172Z,0.00
2016-12-19T03:54:25.708Z,0.00
2016-12-19T03:55:26.234Z,0.00
2016-12-19T03:56:26.915Z,0.00
2016-12-19T03:57:27.305Z,0.00
2016-12-19T03:58:27.981Z,0.00
2016-12-19T03:59:28.512Z,0.00
2016-12-19T04:00:29.041Z,0.00
2016-12-19T04:01:29.429Z,0.00
2016-12-19T04:02:29.960Z,0.00
2016-12-19T04:03:30.640Z,0.00
2016-12-19T04:04:31.026Z,0.00
2016-12-19T04:05:31.553Z,0.00
2016-12-19T04:06:32.086Z,0.00
2016-12-19T04:07:32.607Z,0.00
2016-12-19T04:08:33.142Z,0.00
2016-12-19T04:09:33.696Z,0.00
2016-12-19T04:10:34.208Z,0.00
2016-12-19T04:11:34.770Z,0.00
2016-12-19T04:12:35.414Z,0.00
2016-12-19T04:13:35.800Z,0.00
2016-12-19T04:14:36.480Z,0.00
2016-12-19T04:15:36.862Z,0.00
2016-12-19T04:16:37.398Z,0.00
2016-12-19T04:17:37.965Z,0.00
2016-12-19T04:18:38.469Z,0.00
2016-12-19T04:19:38.998Z,0.00
2016-12-19T04:20:39.561Z,0.00
2016-12-19T04:21:40.057Z,0.00
2016-12-19T04:22:40.588Z,0.00
2016-12-19T04:23:41.270Z,0.00
2016-12-19T04:24:41.793Z,0.00
2016-12-19T04:25:42.180Z,0.00
2016-12-19T04:26:42.856Z,0.00
2016-12-19T04:27:43.239Z,0.00
2016-12-19T04:28:43.772Z,0.00
2016-12-19T04:29:44.312Z,0.00
2016-12-19T04:30:44.989Z,0.00
2016-12-19T04:31:45.367Z,0.00
2016-12-19T04:32:46.045Z,0.00
2016-12-19T04:33:46.428Z,0.00
2016-12-19T04:34:46.966Z,0.00
2016-12-19T04:35:47.495Z,0.00
2016-12-19T04:36:48.027Z,0.00
2016-12-19T04:37:48.556Z,0.00
2016-12-19T04:38:49.084Z,0.00
2016-12-19T04:39:49.616Z,0.00
2016-12-19T04:40:50.151Z,0.00
2016-12-19T04:41:50.828Z,0.00
2016-12-19T04:42:51.357Z,0.00
2016-12-19T04:43:51.737Z,0.00
2016-12-19T04:44:52.275Z,0.00
2016-12-19T04:45:52.954Z,0.00
2016-12-19T04:46:53.336Z,0.00
2016-12-19T04:47:53.894Z,0.00
2016-12-19T04:48:54.543Z,0.00
2016-12-19T04:49:55.224Z,0.00
2016-12-19T04:50:55.460Z,0.00
2016-12-19T04:51:55.994Z,0.00
2016-12-19T04:52:56.671Z,0.00
2016-12-19T04:53:57.067Z,0.00
2016-12-19T04:54:57.745Z,0.00
2016-12-19T04:55:58.153Z,0.00
2016-12-19T04:56:58.658Z,0.00
2016-12-19T04:57:59.195Z,0.00
2016-12-19T04:58:59.877Z,0.00
2016-12-19T05:00:00.412Z,0.00
2016-12-19T05:01:00.941Z,0.00
2016-12-19T05:02:01.353Z,0.00
2016-12-19T05:03:01.866Z,0.00
2016-12-19T05:04:02.388Z,0.00
2016-12-19T05:05:02.923Z,0.00
2016-12-19T05:06:03.478Z,0.00
2016-12-19T05:07:03.983Z,0.00
2016-12-19T05:08:04.515Z,0.00
2016-12-19T05:09:05.189Z,0.00
2016-12-19T05:10:05.722Z,0.00
2016-12-19T05:11:06.106Z,0.00
2016-12-19T05:12:06.636Z,0.00
2016-12-19T05:13:07.312Z,0.00
2016-12-19T05:14:07.722Z,0.00
2016-12-19T05:15:08.230Z,0.00
2016-12-19T05:16:08.916Z,0.00
2016-12-19T05:17:09.294Z,0.00
2016-12-19T05:18:09.972Z,0.00
2016-12-19T05:19:10.357Z,0.00
2016-12-19T05:20:11.037Z,0.00
2016-12-19T05:21:11.569Z,0.00
2016-12-19T05:22:11.954Z,0.00
2016-12-19T05:23:12.484Z,0.00
2016-12-19T05:24:13.016Z,0.00
2016-12-19T05:25:13.548Z,0.00
2016-12-19T05:26:14.075Z,0.00
2016-12-19T05:27:14.615Z,0.00
2016-12-19T05:28:15.141Z,0.00
2016-12-19T05:29:15.673Z,0.00
2016-12-19T05:30:16.361Z,0.00
2016-12-19T05:31:16.738Z,0.00
2016-12-19T05:32:17.265Z,0.00
2016-12-19T05:33:17.802Z,0.00
2016-12-19T05:34:18.367Z,0.00
2016-12-19T05:35:18.868Z,0.00
2016-12-19T05:36:19.431Z,0.00
2016-12-19T05:37:19.940Z,0.00
2016-12-19T05:38:20.500Z,0.00
2016-12-19T05:39:21.154Z,0.00
2016-12-19T05:40:21.577Z,0.00
2016-12-19T05:41:22.225Z,0.00
2016-12-19T05:42:22.760Z,0.00
2016-12-19T05:43:23.293Z,0.00
2016-12-19T05:44:23.674Z,0.00
2016-12-19T05:45:24.206Z,0.00
2016-12-19T05:46:24.737Z,0.00
2016-12-19T05:47:25.415Z,0.00
2016-12-19T05:48:25.801Z,0.00
2016-12-19T05:49:26.331Z,0.00
2016-12-19T05:50:26.889Z,0.00
2016-12-19T05:51:27.393Z,0.00
2016-12-19T05:52:27.962Z,0.00
2016-12-19T05:53:28.451Z,0.00
2016-12-19T05:54:29.133Z,0.00
2016-12-19T05:55:29.517Z,0.00
2016-12-19T05:56:30.055Z,0.00
2016-12-19T05:57:30.584Z,0.00
2016-12-19T05:58:31.258Z,0.00
2016-12-19T05:59:31.640Z,0.00
2016-12-19T06:00:32.173Z,0.00
2016-12-19T06:01:32.702Z,0.00
2016-12-19T06:02:33.237Z,0.00
2016-12-19T06:03:33.766Z,0.00
2016-12-19T06:04:34.332Z,0.00
2016-12-19T06:05:34.974Z,0.00
2016-12-19T06:06:35.507Z,0.00
2016-12-19T06:07:35.890Z,0.00
2016-12-19T06:08:36.418Z,0.00
2016-12-19T06:09:37.141Z,0.00
2016-12-19T06:10:37.628Z,0.00
2016-12-19T06:11:38.022Z,0.00
2016-12-19T06:12:38.576Z,0.00
2016-12-19T06:13:39.081Z,0.00
2016-12-19T06:14:39.631Z,0.00
2016-12-19T06:15:40.286Z,0.00
2016-12-19T06:16:40.685Z,0.00
2016-12-19T06:17:41.354Z,0.00
2016-12-19T06:18:41.777Z,0.00
2016-12-19T06:19:42.425Z,0.00
2016-12-19T06:20:42.813Z,0.00
2016-12-19T06:21:43.349Z,0.00
2016-12-19T06:22:43.883Z,0.00
2016-12-19T06:23:44.559Z,0.00
2016-12-19T06:24:44.940Z,0.00
2016-12-19T06:25:45.475Z,0.00
2016-12-19T06:26:46.037Z,0.00
2016-12-19T06:27:46.689Z,0.00
2016-12-19T06:28:47.071Z,0.00
2016-12-19T06:29:47.604Z,0.00
2016-12-19T06:30:48.290Z,0.00
2016-12-19T06:31:48.815Z,0.00
2016-12-19T06:32:49.230Z,0.00
2016-12-19T06:33:49.734Z,0.00
2016-12-19T06:34:50.414Z,0.00
2016-12-19T06:35:50.946Z,0.00
2016-12-19T06:36:51.359Z,0.00
2016-12-19T06:37:51.864Z,0.00
2016-12-19T06:38:52.433Z,0.00
2016-12-19T06:39:52.922Z,0.00
2016-12-19T06:40:53.610Z,0.00
2016-12-19T06:41:54.019Z,0.00
2016-12-19T06:42:54.523Z,0.00
2016-12-19T06:43:55.059Z,0.00
2016-12-19T06:44:55.594Z,0.00
2016-12-19T06:45:56.265Z,0.00
2016-12-19T06:46:56.648Z,0.00
2016-12-19T06:47:57.184Z,0.00
2016-12-19T06:48:57.717Z,0.00
2016-12-19T06:49:58.553Z,0.00
2016-12-19T06:50:58.777Z,0.00
2016-12-19T06:51:59.454Z,0.00
2016-12-19T06:52:59.879Z,0.00
2016-12-19T06:54:00.377Z,0.00
2016-12-19T06:55:01.057Z,0.00
2016-12-19T06:56:01.440Z,0.00
2016-12-19T06:57:01.997Z,0.00
2016-12-19T06:58:02.502Z,0.00
2016-12-19T06:59:03.074Z,0.00
2016-12-19T07:00:03.575Z,0.00
2016-12-19T07:01:04.265Z,0.00
2016-12-19T07:02:04.793Z,0.00
2016-12-19T07:03:05.326Z,0.00
2016-12-19T07:04:05.710Z,0.00
2016-12-19T07:05:06.274Z,0.00
2016-12-19T07:06:06.767Z,0.00
2016-12-19T07:07:07.456Z,0.00
2016-12-19T07:08:07.843Z,0.00
2016-12-19T07:09:09.420Z,0.00
2016-12-19T07:10:08.906Z,0.00
2016-12-19T07:11:09.471Z,0.00
2016-12-19T07:12:09.975Z,0.00
2016-12-19T07:13:10.654Z,0.00
2016-12-19T07:14:11.037Z,0.00
2016-12-19T07:15:11.718Z,0.00
2016-12-19T07:16:12.250Z,0.00
2016-12-19T07:17:12.641Z,0.00
2016-12-19T07:18:13.171Z,0.00
2016-12-19T07:19:13.727Z,0.00
2016-12-19T07:20:14.237Z,0.00
2016-12-19T07:21:14.773Z,0.00
2016-12-19T07:22:15.310Z,0.00
2016-12-19T07:23:15.877Z,0.00
2016-12-19T07:24:16.400Z,0.00
2016-12-19T07:25:16.912Z,0.00
2016-12-19T07:26:17.445Z,0.00
2016-12-19T07:27:18.015Z,0.00
2016-12-19T07:28:18.519Z,0.00
2016-12-19T07:29:19.075Z,0.00
2016-12-19T07:30:19.880Z,0.00
2016-12-19T07:31:20.266Z,0.00
2016-12-19T07:32:20.679Z,0.00
2016-12-19T07:33:21.183Z,0.00
2016-12-19T07:34:21.719Z,0.00
2016-12-19T07:35:22.289Z,0.00
2016-12-19T07:36:22.790Z,0.00
2016-12-19T07:37:23.358Z,0.00
2016-12-19T07:38:23.861Z,0.00
2016-12-19T07:39:24.392Z,0.00
2016-12-19T07:40:25.079Z,0.00
2016-12-19T07:41:25.493Z,0.00
2016-12-19T07:42:26.150Z,0.00
2016-12-19T07:43:26.538Z,0.00
2016-12-19T07:44:27.076Z,0.00
2016-12-19T07:45:27.641Z,0.00
2016-12-19T07:46:28.133Z,0.00
2016-12-19T07:47:28.701Z,0.00
2016-12-19T07:48:29.201Z,0.00
2016-12-19T07:49:29.756Z,0.00
2016-12-19T07:50:30.408Z,0.00
2016-12-19T07:51:30.817Z,0.00
2016-12-19T07:52:31.476Z,0.00
2016-12-19T07:53:31.895Z,0.00
2016-12-19T07:54:32.394Z,0.00
2016-12-19T07:55:33.076Z,0.00
2016-12-19T07:56:33.461Z,0.00
2016-12-19T07:57:33.986Z,0.00
2016-12-19T07:58:34.670Z,0.00
2016-12-19T07:59:35.083Z,0.00
2016-12-19T08:00:35.614Z,0.00
2016-12-19T08:01:36.149Z,0.00
2016-12-19T08:02:36.804Z,0.00
2016-12-19T08:03:37.189Z,0.00
2016-12-19T08:04:37.726Z,0.00
2016-12-19T08:05:38.250Z,0.00
2016-12-19T08:06:38.787Z,0.00
2016-12-19T08:07:39.352Z,1.00
2016-12-19T08:08:39.996Z,1.00
2016-12-19T08:09:40.554Z,1.00
2016-12-19T08:10:41.061Z,1.00
2016-12-19T08:11:41.484Z,1.00
2016-12-19T08:12:42.130Z,1.00
2016-12-19T08:13:42.549Z,1.00
2016-12-19T08:14:43.050Z,2.00
2016-12-19T08:15:43.581Z,2.00
2016-12-19T08:16:44.265Z,2.00
2016-12-19T08:17:44.649Z,2.00
2016-12-19T08:18:45.335Z,2.00
2016-12-19T08:19:45.725Z,2.00
2016-12-19T08:20:46.413Z,2.00
2016-12-19T08:21:46.796Z,2.00
2016-12-19T08:22:47.483Z,2.00
2016-12-19T08:23:47.895Z,2.00
2016-12-19T08:24:48.650Z,2.00
2016-12-19T08:25:48.973Z,2.00
2016-12-19T08:26:49.472Z,2.00
2016-12-19T08:27:49.998Z,2.00
2016-12-19T08:28:50.538Z,2.00
2016-12-19T08:29:51.219Z,2.00
2016-12-19T08:30:51.606Z,3.00
2016-12-19T08:31:52.135Z,3.00
2016-12-19T08:32:52.668Z,3.00
2016-12-19T08:33:53.198Z,3.00
2016-12-19T08:34:53.877Z,2.00
2016-12-19T08:35:54.304Z,2.00
2016-12-19T08:36:54.807Z,2.00
2016-12-19T08:37:55.362Z,3.00
2016-12-19T08:38:55.869Z,3.00
2016-12-19T08:39:56.551Z,3.00
2016-12-19T08:40:56.937Z,3.00
2016-12-19T08:41:57.468Z,3.00
2016-12-19T08:42:58.152Z,3.00
2016-12-19T08:43:58.566Z,3.00
2016-12-19T08:44:59.071Z,3.00
2016-12-19T08:45:59.602Z,3.00
2016-12-19T08:47:00.279Z,3.00
2016-12-19T08:48:00.690Z,3.00
2016-12-19T08:49:01.195Z,3.00
2016-12-19T08:50:01.878Z,4.00
2016-12-19T08:51:02.259Z,5.00
2016-12-19T08:52:02.794Z,7.00
2016-12-19T08:53:03.477Z,5.00
2016-12-19T08:54:03.890Z,5.00
2016-12-19T08:55:04.543Z,5.00
2016-12-19T08:56:05.082Z,5.00
2016-12-19T08:57:05.610Z,5.00
2016-12-19T08:58:05.992Z,5.00
2016-12-19T08:59:06.532Z,5.00
2016-12-19T09:00:07.096Z,5.00
2016-12-19T09:01:07.634Z,5.00
2016-12-19T09:02:08.146Z,5.00
2016-12-19T09:03:08.680Z,4.00
2016-12-19T09:04:09.217Z,4.00
2016-12-19T09:05:09.752Z,4.00
2016-12-19T09:06:10.432Z,4.00
2016-12-19T09:07:10.817Z,4.00
2016-12-19T09:08:11.350Z,4.00
2016-12-19T09:09:11.883Z,4.00
2016-12-19T09:10:12.418Z,5.00
2016-12-19T09:11:12.955Z,5.00
2016-12-19T09:12:13.485Z,5.00
2016-12-19T09:13:14.167Z,5.00
2016-12-19T09:14:14.572Z,5.00
2016-12-19T09:15:15.090Z,5.00
2016-12-19T09:16:15.621Z,5.00
2016-12-19T09:17:16.160Z,5.00
2016-12-19T09:18:16.681Z,5.00
2016-12-19T09:19:17.218Z,5.00
2016-12-19T09:20:17.767Z,5.00
2016-12-19T09:21:18.422Z,5.00
2016-12-19T09:22:18.805Z,5.00
2016-12-19T09:23:19.488Z,5.00
2016-12-19T09:24:19.898Z,5.00
2016-12-19T09:25:20.402Z,5.00
2016-12-19T09:26:20.930Z,6.00
2016-12-19T09:27:21.612Z,6.00
2016-12-19T09:28:22.024Z,6.00
2016-12-19T09:29:22.826Z,6.00
2016-12-19T09:30:23.208Z,6.00
2016-12-19T09:31:23.592Z,6.00
2016-12-19T09:32:24.138Z,7.00
2016-12-19T09:33:24.796Z,7.00
2016-12-19T09:34:25.207Z,7.00
2016-12-19T09:35:25.860Z,7.00
2016-12-19T09:36:26.246Z,6.00
2016-12-19T09:37:26.778Z,6.00
2016-12-19T09:38:27.310Z,6.00
2016-12-19T09:39:27.843Z,6.00
2016-12-19T09:40:28.377Z,6.00
2016-12-19T09:41:28.914Z,6.00
2016-12-19T09:42:29.479Z,6.00
2016-12-19T09:43:30.133Z,7.00
2016-12-19T09:44:30.519Z,7.00
2016-12-19T09:45:31.198Z,7.00
2016-12-19T09:46:31.580Z,7.00
2016-12-19T09:47:32.111Z,9.00
2016-12-19T09:48:32.679Z,13.00
2016-12-19T09:49:33.176Z,14.00
2016-12-19T09:50:33.748Z,14.00
2016-12-19T09:51:34.245Z,12.00
2016-12-19T09:52:34.928Z,12.00
2016-12-19T09:53:35.458Z,12.00
2016-12-19T09:54:35.878Z,13.00
2016-12-19T09:55:36.375Z,13.00
2016-12-19T09:56:36.911Z,12.00
2016-12-19T09:57:37.442Z,11.00
2016-12-19T09:58:38.120Z,12.00
2016-12-19T09:59:38.518Z,12.00
2016-12-19T10:00:39.034Z,12.00
2016-12-19T10:01:39.572Z,12.00
2016-12-19T10:02:40.139Z,11.00
2016-12-19T10:03:40.635Z,9.00
2016-12-19T10:04:41.171Z,9.00
2016-12-19T10:05:41.704Z,9.00
2016-12-19T10:06:42.247Z,9.00
2016-12-19T10:07:42.911Z,10.00
2016-12-19T10:08:43.445Z,11.00
2016-12-19T10:09:43.827Z,11.00
2016-12-19T10:10:44.363Z,15.00
2016-12-19T10:11:44.895Z,19.00
2016-12-19T10:12:45.422Z,21.00
2016-12-19T10:13:45.952Z,20.00
2016-12-19T10:14:46.480Z,10.00
2016-12-19T10:15:47.016Z,10.00
2016-12-19T10:16:47.571Z,27.00
2016-12-19T10:17:48.229Z,27.00
2016-12-19T10:18:48.762Z,25.00
2016-12-19T10:19:49.150Z,21.00
2016-12-19T10:20:49.827Z,16.00
2016-12-19T10:21:50.361Z,21.00
2016-12-19T10:22:50.746Z,27.00
2016-12-19T10:23:51.433Z,21.00
2016-12-19T10:24:51.853Z,29.00
2016-12-19T10:25:52.502Z,14.00
2016-12-19T10:26:53.033Z,12.00
2016-12-19T10:27:53.559Z,15.00
2016-12-19T10:28:53.949Z,14.00
2016-12-19T10:29:54.627Z,15.00
2016-12-19T10:30:55.023Z,14.00
2016-12-19T10:31:55.543Z,17.00
2016-12-19T10:32:56.100Z,19.00
2016-12-19T10:33:56.615Z,29.00
2016-12-19T10:34:57.150Z,22.00
2016-12-19T10:35:57.677Z,12.00
2016-12-19T10:36:58.208Z,10.00
2016-12-19T10:37:58.743Z,10.00
2016-12-19T10:38:59.424Z,10.00
2016-12-19T10:39:59.808Z,10.00
2016-12-19T10:41:00.337Z,9.00
2016-12-19T10:42:00.870Z,9.00
2016-12-19T10:43:01.552Z,9.00
2016-12-19T10:44:01.935Z,8.00
2016-12-19T10:45:02.618Z,9.00
2016-12-19T10:46:03.003Z,9.00
2016-12-19T10:47:03.539Z,9.00
2016-12-19T10:48:04.364Z,9.00
2016-12-19T10:49:04.746Z,9.00
2016-12-19T10:50:05.126Z,10.00
2016-12-19T10:51:05.696Z,10.00
2016-12-19T10:52:06.337Z,10.00
2016-12-19T10:53:06.873Z,12.00
2016-12-19T10:54:07.403Z,13.00
2016-12-19T10:55:07.815Z,28.00
2016-12-19T10:56:08.471Z,36.00
2016-12-19T10:57:09.006Z,37.00
2016-12-19T10:58:09.535Z,38.00
2016-12-19T10:59:09.949Z,39.00
2016-12-19T11:00:10.460Z,40.00
2016-12-19T11:01:11.143Z,40.00
2016-12-19T11:03:12.091Z,37.00
2016-12-19T11:04:12.599Z,21.00
2016-12-19T11:05:13.132Z,16.00
2016-12-19T11:06:13.664Z,13.00
2016-12-19T11:07:14.194Z,13.00
2016-12-19T11:08:14.723Z,15.00
2016-12-19T11:09:15.254Z,14.00
2016-12-19T11:10:15.782Z,17.00
2016-12-19T11:11:16.325Z,16.00
2016-12-19T11:12:16.877Z,13.00
2016-12-19T11:13:17.415Z,13.00
2016-12-19T11:14:17.909Z,13.00
2016-12-19T11:15:18.439Z,11.00
2016-12-19T11:16:19.119Z,11.00
2016-12-19T11:17:19.539Z,17.00
2016-12-19T11:18:20.184Z,28.00
2016-12-19T11:19:20.603Z,33.00
2016-12-19T11:20:21.248Z,19.00
2016-12-19T11:21:21.781Z,18.00
2016-12-19T11:22:22.313Z,21.00
2016-12-19T11:23:22.844Z,18.00
2016-12-19T11:24:23.374Z,18.00
2016-12-19T11:25:23.770Z,17.00
2016-12-19T11:26:24.294Z,17.00
2016-12-19T11:27:25.122Z,18.00
2016-12-19T11:28:25.409Z,23.00
2016-12-19T11:29:25.898Z,29.00
2016-12-19T11:30:26.425Z,20.00
2016-12-19T11:31:26.956Z,22.00
2016-12-19T11:32:27.484Z,16.00
2016-12-19T11:33:28.162Z,15.00
2016-12-19T11:34:28.691Z,13.00
2016-12-19T11:35:29.222Z,21.00
2016-12-19T11:36:29.754Z,13.00
2016-12-19T11:37:30.166Z,11.00
2016-12-19T11:38:30.700Z,10.00
2016-12-19T11:39:31.356Z,8.00
2016-12-19T11:40:31.766Z,8.00
2016-12-19T11:41:32.266Z,9.00
2016-12-19T11:42:32.953Z,9.00
2016-12-19T11:43:33.495Z,10.00
2016-12-19T11:44:34.026Z,9.00
2016-12-19T11:45:34.455Z,10.00
2016-12-19T11:46:34.950Z,10.00
2016-12-19T11:47:35.634Z,11.00
2016-12-19T11:48:36.022Z,10.00
2016-12-19T11:49:36.557Z,10.00
2016-12-19T11:50:37.086Z,10.00
2016-12-19T11:51:37.611Z,11.00
2016-12-19T11:52:38.144Z,11.00
2016-12-19T11:53:38.825Z,11.00
2016-12-19T11:54:39.352Z,11.00
2016-12-19T11:55:39.740Z,11.00
2016-12-19T11:56:40.267Z,10.00
2016-12-19T11:57:40.798Z,9.00
2016-12-19T11:58:41.332Z,8.00
2016-12-19T11:59:41.857Z,8.00
2016-12-19T12:00:42.539Z,8.00
2016-12-19T12:02:43.604Z,6.00
2016-12-19T12:03:44.137Z,6.00
2016-12-19T12:04:44.520Z,6.00
2016-12-19T12:05:45.223Z,6.00
2016-12-19T12:06:45.725Z,6.00
2016-12-19T12:07:46.151Z,5.00
2016-12-19T12:08:46.795Z,5.00
2016-12-19T12:09:47.209Z,5.00
2016-12-19T12:10:47.715Z,5.00
2016-12-19T12:11:48.393Z,4.00
2016-12-19T12:12:48.772Z,4.00
2016-12-19T12:13:49.307Z,4.00
2016-12-19T12:14:49.840Z,4.00
2016-12-19T12:15:50.390Z,4.00
2016-12-19T12:16:50.900Z,4.00
2016-12-19T12:17:51.583Z,4.00
2016-12-19T12:18:52.111Z,4.00
2016-12-19T12:19:52.519Z,4.00
2016-12-19T12:20:53.025Z,4.00
2016-12-19T12:21:53.557Z,4.00
2016-12-19T12:22:54.106Z,4.00
2016-12-19T12:23:54.659Z,4.00
2016-12-19T12:24:55.177Z,4.00
2016-12-19T12:25:55.708Z,4.00
2016-12-19T12:26:56.245Z,4.00
2016-12-19T12:27:56.774Z,4.00
2016-12-19T12:28:57.303Z,4.00
2016-12-19T12:29:57.836Z,4.00
2016-12-19T12:30:58.372Z,4.00
2016-12-19T12:31:58.905Z,5.00
2016-12-19T12:32:59.434Z,5.00
2016-12-19T12:33:59.963Z,5.00
2016-12-19T12:35:00.495Z,5.00
2016-12-19T12:36:01.027Z,5.00
2016-12-19T12:37:01.561Z,5.00
2016-12-19T12:38:02.116Z,5.00
2016-12-19T12:39:02.627Z,5.00
2016-12-19T12:40:03.159Z,5.00
2016-12-19T12:41:03.688Z,5.00
2016-12-19T12:42:04.372Z,5.00
2016-12-19T12:43:04.762Z,5.00
2016-12-19T12:44:05.885Z,5.00
2016-12-19T12:45:05.822Z,5.00
2016-12-19T12:46:06.503Z,6.00
2016-12-19T12:47:07.033Z,6.00
2016-12-19T12:48:07.415Z,6.00
2016-12-19T12:49:07.950Z,6.00
2016-12-19T12:50:08.632Z,6.00
2016-12-19T12:51:09.160Z,6.00
2016-12-19T12:52:09.695Z,6.00
2016-12-19T12:53:10.081Z,6.00
2016-12-19T12:54:10.644Z,6.00
2016-12-19T12:55:11.136Z,6.00
2016-12-19T12:56:11.693Z,6.00
2016-12-19T12:57:12.202Z,6.00
2016-12-19T12:58:12.730Z,6.00
2016-12-19T12:59:13.262Z,6.00
2016-12-19T13:00:13.808Z,6.00
2016-12-19T13:01:14.322Z,6.00
2016-12-19T13:02:15.005Z,5.00
2016-12-19T13:03:15.537Z,5.00
2016-12-19T13:04:16.077Z,5.00
2016-12-19T13:05:16.611Z,5.00
2016-12-19T13:06:17.016Z,4.00
2016-12-19T13:07:17.534Z,4.00
2016-12-19T13:08:18.075Z,4.00
2016-12-19T13:09:18.599Z,4.00
2016-12-19T13:10:19.132Z,4.00
2016-12-19T13:11:19.662Z,4.00
2016-12-19T13:12:20.195Z,4.00
2016-12-19T13:13:20.751Z,4.00
2016-12-19T13:14:21.253Z,3.00
2016-12-19T13:15:21.934Z,3.00
2016-12-19T13:16:22.324Z,3.00
2016-12-19T13:17:22.995Z,3.00
2016-12-19T13:18:23.379Z,3.00
2016-12-19T13:19:23.918Z,3.00
2016-12-19T13:20:24.445Z,3.00
2016-12-19T13:21:25.124Z,3.00
2016-12-19T13:22:25.533Z,3.00
2016-12-19T13:23:26.040Z,3.00